»·PEaware :: N6750H KBOI-KPDX

N6750H :: KBOI-KPDX

FLIGHT INFORMATION

Flight Status: Arrived
Operator: Privately registered:
United States
More flights under this callsign
Pilot: Yoel G. (22311)
Aircraft: Unknown
(DA62)
More flights by this aircraft type
Origin: KBOI Boise Air Terminal/Gowen
United States
Destination: KPDX Portland Intl
United States
More flights between these airports :: More routes between these airports
Route: +BOI V444 BKE V182 LTJ V520 BTG
File this flight plan on PilotEdge
Remarks:
Altitude:
(Current/Filed)
200ft
Speed:
(Current/Filed)
201kts
Departed: 12-Dec-18 03:03 PM
Arrived: 12-Dec-18 05:28 PM
Distance/Time
Traveled:
298nm/2:25
Distance/Time
To Go:
Arrived

Flight Plot

Page will automatically refresh every two minutes.

Flight plan parsing failed; only flown route is shown


Map Options




Map Legend


Flown Route
Filed Route
Departure Airport
Arrival Airport
Navaid (VOR, NDB)
Fix

Horizontal Profiles

Position Reports

Time Latitude Longitude Heading Altitude Ground
Speed
12-Dec-18 14:37 43.565792 -116.243504 149 2812ft 0kts
12-Dec-18 14:38 43.565792 -116.243504 149 2812ft 0kts
12-Dec-18 14:39 43.565792 -116.243504 149 2812ft 0kts
12-Dec-18 14:40 43.565792 -116.243504 149 2812ft 0kts
12-Dec-18 14:41 43.565792 -116.243504 149 2812ft 0kts
12-Dec-18 14:42 43.565792 -116.243504 149 2812ft 0kts
12-Dec-18 14:43 43.565792 -116.243504 149 2812ft 0kts
12-Dec-18 14:44 43.565792 -116.243504 149 2812ft 0kts
12-Dec-18 14:45 43.565792 -116.243504 149 2812ft 0kts
12-Dec-18 14:46 43.565792 -116.243504 149 2812ft 0kts
12-Dec-18 14:47 43.565792 -116.243504 149 2812ft 0kts
12-Dec-18 14:47 43.565792 -116.243504 149 2812ft 0kts
12-Dec-18 14:49 43.565792 -116.243504 149 2812ft 0kts
12-Dec-18 14:50 43.565792 -116.243504 149 2812ft 0kts
12-Dec-18 14:50 43.565792 -116.243504 149 2812ft 0kts
12-Dec-18 14:51 43.565792 -116.243504 149 2812ft 0kts
12-Dec-18 14:53 43.565601 -116.243038 83 2813ft 8kts
12-Dec-18 14:53 43.565825 -116.241235 85 2816ft 6kts
12-Dec-18 14:54 43.566029 -116.238051 85 2822ft 9kts
12-Dec-18 14:56 43.565583 -116.233487 116 2831ft 12kts
12-Dec-18 14:56 43.564226 -116.229504 113 2838ft 15kts
12-Dec-18 14:57 43.562155 -116.223438 115 2845ft 19kts
12-Dec-18 14:58 43.559609 -116.215977 114 2849ft 20kts
12-Dec-18 14:59 43.557797 -116.210712 116 2855ft 11kts
12-Dec-18 15:00 43.557920 -116.210072 19 2855ft 0kts
12-Dec-18 15:01 43.557958 -116.210052 20 2855ft 3kts
12-Dec-18 15:02 43.560584 -116.214967 295 2852ft 79kts
12-Dec-18 15:03 43.570716 -116.252803 286 3783ft 109kts
12-Dec-18 15:04 43.578901 -116.288746 291 5284ft 82kts
12-Dec-18 15:05 43.583584 -116.312035 291 6324ft 81kts
12-Dec-18 15:06 43.591233 -116.340751 296 7625ft 80kts
12-Dec-18 15:07 43.606192 -116.361115 324 8907ft 79kts
12-Dec-18 15:08 43.624426 -116.377577 324 10177ft 79kts
12-Dec-18 15:09 43.641490 -116.392643 323 11395ft 79kts
12-Dec-18 15:10 43.659860 -116.409189 323 12632ft 78kts
12-Dec-18 15:11 43.677812 -116.425221 323 13863ft 76kts
12-Dec-18 15:12 43.695250 -116.440751 323 15071ft 74kts
12-Dec-18 15:13 43.712210 -116.455845 323 16256ft 72kts
12-Dec-18 15:14 43.730849 -116.472508 324 17072ft 95kts
12-Dec-18 15:15 43.746202 -116.486105 324 17719ft 95kts
12-Dec-18 15:16 43.754170 -116.493184 324 18045ft 95kts
12-Dec-18 15:17 43.773634 -116.510498 324 18803ft 94kts
12-Dec-18 15:18 43.795423 -116.529900 324 19589ft 93kts
12-Dec-18 15:19 43.802258 -116.535998 324 19825ft 93kts
12-Dec-18 15:20 43.815085 -116.547483 324 20015ft 106kts
12-Dec-18 15:21 43.843066 -116.572465 324 20013ft 128kts
12-Dec-18 15:22 43.848111 -116.576963 324 20012ft 130kts
12-Dec-18 15:23 43.878958 -116.604520 324 20009ft 135kts
12-Dec-18 15:24 43.893493 -116.617509 324 20009ft 136kts
12-Dec-18 15:25 43.917559 -116.641084 319 20008ft 136kts
12-Dec-18 15:26 43.946202 -116.675974 318 20017ft 137kts
12-Dec-18 15:27 43.974886 -116.711405 318 20020ft 138kts
12-Dec-18 15:28 43.999196 -116.741587 318 20021ft 138kts
12-Dec-18 15:29 44.025473 -116.774245 318 20024ft 138kts
12-Dec-18 15:30 44.036852 -116.788405 318 20025ft 138kts
12-Dec-18 15:31 44.055185 -116.811236 317 20027ft 138kts
12-Dec-18 15:32 44.083650 -116.846721 318 20029ft 137kts
12-Dec-18 15:33 44.112265 -116.882456 318 20041ft 139kts
12-Dec-18 15:34 44.132814 -116.908131 318 20041ft 140kts
12-Dec-18 15:35 44.161777 -116.944364 317 20040ft 140kts
12-Dec-18 15:36 44.190744 -116.980670 318 20040ft 140kts
12-Dec-18 15:37 44.219641 -117.016925 318 20039ft 139kts
12-Dec-18 15:38 44.245043 -117.048832 318 20038ft 139kts
12-Dec-18 15:39 44.273684 -117.084878 318 20038ft 138kts
12-Dec-18 15:40 44.302225 -117.120815 317 20038ft 137kts
12-Dec-18 15:41 44.330608 -117.156623 318 20036ft 137kts
12-Dec-18 15:42 44.358955 -117.192429 317 20032ft 137kts
12-Dec-18 15:43 44.387229 -117.228194 318 20026ft 137kts
12-Dec-18 15:44 44.415553 -117.264077 318 20017ft 137kts
12-Dec-18 15:45 44.443772 -117.299872 318 20005ft 137kts
12-Dec-18 15:46 44.472102 -117.335855 317 19989ft 137kts
12-Dec-18 15:47 44.500312 -117.371729 318 19978ft 137kts
12-Dec-18 15:48 44.528474 -117.407597 318 19977ft 136kts
12-Dec-18 15:49 44.556507 -117.443353 318 19977ft 136kts
12-Dec-18 15:50 44.584528 -117.479140 318 19977ft 136kts
12-Dec-18 15:51 44.612513 -117.514921 318 19976ft 136kts
12-Dec-18 15:52 44.640462 -117.550725 318 19975ft 135kts
12-Dec-18 15:53 44.668316 -117.586442 318 19975ft 135kts
12-Dec-18 15:54 44.696096 -117.622109 318 19974ft 135kts
12-Dec-18 15:55 44.723945 -117.657934 317 19979ft 135kts
12-Dec-18 15:56 44.751863 -117.693865 317 19980ft 136kts
12-Dec-18 15:57 44.780007 -117.730152 317 19980ft 137kts
12-Dec-18 15:58 44.808063 -117.766377 317 19979ft 137kts
12-Dec-18 15:59 44.835997 -117.802589 314 19977ft 137kts
12-Dec-18 16:00 44.852518 -117.852545 299 19978ft 141kts
12-Dec-18 16:01 44.867354 -117.903750 299 19977ft 141kts
12-Dec-18 16:02 44.881949 -117.955165 299 19977ft 141kts
12-Dec-18 16:03 44.896491 -118.006722 299 19976ft 141kts
12-Dec-18 16:04 44.910990 -118.058260 299 19976ft 141kts
12-Dec-18 16:05 44.925398 -118.109586 299 19977ft 140kts
12-Dec-18 16:06 44.939796 -118.160999 299 19982ft 140kts
12-Dec-18 16:07 44.954130 -118.212285 299 19988ft 140kts
12-Dec-18 16:08 44.968407 -118.263452 299 19994ft 139kts
12-Dec-18 16:09 44.982633 -118.314552 298 19999ft 139kts
12-Dec-18 16:10 44.996736 -118.365326 298 20009ft 138kts
12-Dec-18 16:11 45.010761 -118.415963 297 20008ft 138kts
12-Dec-18 16:12 45.024717 -118.466446 297 20008ft 137kts
12-Dec-18 16:13 45.037576 -118.513065 297 20329ft 128kts
12-Dec-18 16:14 45.050830 -118.561136 296 20328ft 133kts
12-Dec-18 16:15 45.064301 -118.610171 296 20326ft 134kts
12-Dec-18 16:16 45.077621 -118.658785 295 20331ft 134kts
12-Dec-18 16:17 45.091223 -118.708426 294 20331ft 135kts
12-Dec-18 16:18 45.104869 -118.758388 294 20337ft 136kts
12-Dec-18 16:19 45.118575 -118.808675 293 20334ft 137kts
12-Dec-18 16:20 45.132353 -118.859311 293 20333ft 137kts
12-Dec-18 16:21 45.146119 -118.910009 292 20332ft 138kts
12-Dec-18 16:22 45.159846 -118.960699 292 20331ft 138kts
12-Dec-18 16:23 45.173619 -119.011646 291 20330ft 138kts
12-Dec-18 16:24 45.187352 -119.062588 291 20331ft 138kts
12-Dec-18 16:25 45.201123 -119.113760 291 20332ft 138kts
12-Dec-18 16:26 45.214807 -119.164735 291 20333ft 138kts
12-Dec-18 16:27 45.228492 -119.215783 291 20334ft 138kts
12-Dec-18 16:28 45.242117 -119.266721 291 20336ft 138kts
12-Dec-18 16:29 45.255678 -119.317543 291 20336ft 138kts
12-Dec-18 16:30 45.269254 -119.368503 291 20335ft 137kts
12-Dec-18 16:31 45.282771 -119.419361 291 20335ft 137kts
12-Dec-18 16:32 45.296215 -119.470043 291 20334ft 137kts
12-Dec-18 16:33 45.309691 -119.520949 291 20334ft 137kts
12-Dec-18 16:34 45.323097 -119.571717 291 20333ft 137kts
12-Dec-18 16:35 45.336490 -119.622554 291 20332ft 137kts
12-Dec-18 16:36 45.349849 -119.673428 291 20342ft 137kts
12-Dec-18 16:38 45.363315 -119.724730 290 20342ft 139kts
12-Dec-18 16:39 45.376819 -119.776331 290 20341ft 139kts
12-Dec-18 16:40 45.390302 -119.828011 291 20340ft 139kts
12-Dec-18 16:41 45.403745 -119.879585 290 20340ft 139kts
12-Dec-18 16:42 45.417174 -119.931248 290 20339ft 139kts
12-Dec-18 16:43 45.430518 -119.982731 290 20338ft 138kts
12-Dec-18 16:44 45.443861 -120.034269 290 20340ft 138kts
12-Dec-18 16:45 45.457139 -120.085711 290 20343ft 138kts
12-Dec-18 16:46 45.470410 -120.137220 290 20346ft 138kts
12-Dec-18 16:47 45.485302 -120.195169 290 19385ft 168kts
12-Dec-18 16:48 45.501829 -120.259678 290 18404ft 176kts
12-Dec-18 16:49 45.517545 -120.321149 290 18351ft 156kts
12-Dec-18 16:50 45.532063 -120.378070 290 18352ft 150kts
12-Dec-18 16:51 45.546337 -120.434172 290 18352ft 149kts
12-Dec-18 16:52 45.560521 -120.490077 290 18352ft 149kts
12-Dec-18 16:53 45.574584 -120.545636 290 18351ft 149kts
12-Dec-18 16:54 45.588657 -120.601360 290 18351ft 148kts
12-Dec-18 16:55 45.602630 -120.656854 289 18356ft 148kts
12-Dec-18 16:56 45.616715 -120.712880 289 18358ft 150kts
12-Dec-18 16:57 45.630827 -120.769191 289 18358ft 150kts
12-Dec-18 16:57 45.642541 -120.816012 289 18357ft 150kts
12-Dec-18 16:59 45.658915 -120.881642 289 18356ft 150kts
12-Dec-18 16:59 45.670589 -120.928548 289 18356ft 150kts
12-Dec-18 17:00 45.686094 -120.991010 288 17309ft 183kts
12-Dec-18 17:01 45.703696 -121.062136 287 15806ft 193kts
12-Dec-18 17:02 45.705749 -121.134722 260 14996ft 173kts
12-Dec-18 17:03 45.694791 -121.197925 259 14996ft 156kts
12-Dec-18 17:04 45.683786 -121.256885 258 14996ft 151kts
12-Dec-18 17:05 45.672828 -121.314825 258 14996ft 150kts
12-Dec-18 17:06 45.661808 -121.372815 258 14996ft 150kts
12-Dec-18 17:07 45.649633 -121.431571 254 14433ft 175kts
12-Dec-18 17:08 45.632822 -121.503634 254 12578ft 195kts
12-Dec-18 17:09 45.616164 -121.577827 255 10958ft 196kts
12-Dec-18 17:10 45.598719 -121.650062 254 10004ft 179kts
12-Dec-18 17:11 45.583316 -121.713177 254 10017ft 164kts
12-Dec-18 17:12 45.569121 -121.773841 254 10015ft 161kts
12-Dec-18 17:13 45.556773 -121.830009 254 10013ft 159kts
12-Dec-18 17:14 45.544491 -121.889934 254 10010ft 159kts
12-Dec-18 17:15 45.533235 -121.948967 254 10009ft 159kts
12-Dec-18 17:16 45.522879 -122.004219 254 9643ft 175kts
12-Dec-18 17:17 45.512866 -122.060856 254 8428ft 195kts
12-Dec-18 17:18 45.501710 -122.130196 254 6733ft 184kts
12-Dec-18 17:19 45.488987 -122.213933 254 5484ft 180kts
12-Dec-18 17:20 45.478968 -122.286551 274 3979ft 175kts
12-Dec-18 17:21 45.498680 -122.348634 295 3121ft 175kts
12-Dec-18 17:22 45.521844 -122.409143 296 2123ft 174kts
12-Dec-18 17:23 45.543856 -122.465330 297 1653ft 152kts
12-Dec-18 17:24 45.562347 -122.512487 297 929ft 121kts
12-Dec-18 17:25 45.574999 -122.544833 295 437ft 77kts
12-Dec-18 17:26 45.585682 -122.572211 295 23ft 73kts
12-Dec-18 17:27 45.588189 -122.582562 209 20ft 7kts
12-Dec-18 17:28 45.588131 -122.584882 216 20ft 15kts
12-Dec-18 17:29 45.587492 -122.584270 118 20ft 0kts
12-Dec-18 17:30 45.587492 -122.584270 118 20ft 0kts
12-Dec-18 17:31 45.587492 -122.584270 118 20ft 0kts

Navigation Log

Ident Type
Flight plan parsing failed, navigation log unavailable